createdAt,value
2024-01-20T00:01:20.307Z,78.25
2024-01-20T00:04:22.281Z,78.29
2024-01-20T00:07:24.271Z,77.75
2024-01-20T00:10:25.991Z,77.78
2024-01-20T00:13:27.669Z,78.23
2024-01-20T00:16:29.397Z,78.47
2024-01-20T00:19:31.283Z,78.57
2024-01-20T00:22:33.248Z,77.48
2024-01-20T00:25:35.250Z,77.66
2024-01-20T00:28:37.335Z,77.48
2024-01-20T00:31:39.307Z,78.14
2024-01-20T00:34:51.571Z,78.52
2024-01-20T00:38:02.136Z,78.66
2024-01-20T00:41:04.056Z,78.24
2024-01-20T00:44:06.055Z,78.39
2024-01-20T00:47:08.093Z,78.40
2024-01-20T00:50:10.270Z,78.54
2024-01-20T00:53:11.989Z,78.24
2024-01-20T00:56:13.771Z,78.42
2024-01-20T00:59:15.573Z,78.26
2024-01-20T01:02:19.867Z,78.63
2024-01-20T01:05:21.773Z,78.82
2024-01-20T01:08:23.442Z,77.61
2024-01-20T01:11:25.193Z,78.05
2024-01-20T01:14:26.943Z,77.96
2024-01-20T01:17:28.826Z,78.10
2024-01-20T01:20:30.558Z,77.59
2024-01-20T01:23:32.527Z,77.76
2024-01-20T01:26:34.382Z,77.45
2024-01-20T01:29:36.312Z,78.19
2024-01-20T01:32:38.457Z,77.24
2024-01-20T01:35:40.202Z,76.64
2024-01-20T01:38:41.868Z,76.28
2024-01-20T01:41:45.167Z,76.36
2024-01-20T01:44:46.870Z,76.77
2024-01-20T01:47:49.412Z,77.00
2024-01-20T01:50:54.733Z,76.78
2024-01-20T01:53:58.867Z,76.32
2024-01-20T01:57:01.561Z,76.96
2024-01-20T02:00:05.487Z,76.13
2024-01-20T02:03:09.294Z,75.87
2024-01-20T02:06:11.273Z,76.60
2024-01-20T02:09:14.330Z,77.72
2024-01-20T02:12:16.613Z,77.07
2024-01-20T02:15:19.082Z,76.48
2024-01-20T02:18:23.927Z,76.51
2024-01-20T02:21:25.809Z,75.88
2024-01-20T02:24:27.622Z,76.06
2024-01-20T02:27:29.434Z,75.96
2024-01-20T02:30:31.280Z,75.94
2024-01-20T02:33:33.140Z,76.32
2024-01-20T02:36:34.949Z,76.33
2024-01-20T02:39:36.669Z,76.47
2024-01-20T02:42:38.433Z,77.46
2024-01-20T02:45:40.150Z,77.52
2024-01-20T02:48:42.293Z,76.80
2024-01-20T02:51:44.015Z,76.95
2024-01-20T02:54:45.720Z,76.11
2024-01-20T02:57:47.503Z,75.68
2024-01-20T03:00:49.211Z,74.99
2024-01-20T03:03:50.956Z,74.97
2024-01-20T03:06:52.675Z,75.58
2024-01-20T03:09:54.441Z,76.01
2024-01-20T03:12:56.999Z,75.87
2024-01-20T03:15:58.804Z,75.39
2024-01-20T03:19:00.643Z,76.13
2024-01-20T03:22:02.443Z,76.20
2024-01-20T03:25:04.309Z,76.07
2024-01-20T03:28:06.171Z,76.82
2024-01-20T03:31:07.890Z,77.12
2024-01-20T03:34:10.538Z,76.26
2024-01-20T03:37:12.352Z,72.63
2024-01-20T03:40:14.228Z,73.30
2024-01-20T03:43:15.909Z,75.61
2024-01-20T03:46:19.476Z,75.89
2024-01-20T03:49:21.525Z,75.45
2024-01-20T03:52:23.389Z,76.26
2024-01-20T03:55:25.077Z,75.62
2024-01-20T03:58:26.857Z,75.77
2024-01-20T04:01:28.615Z,76.25
2024-01-20T04:04:30.393Z,76.04
2024-01-20T04:07:32.169Z,76.31
2024-01-20T04:10:33.901Z,76.72
2024-01-20T04:13:35.618Z,76.59
2024-01-20T04:16:37.767Z,76.88
2024-01-20T04:19:39.684Z,77.13
2024-01-20T04:22:41.420Z,76.93
2024-01-20T04:25:43.198Z,76.47
2024-01-20T04:28:45.411Z,76.29
2024-01-20T04:31:47.187Z,76.87
2024-01-20T04:34:48.935Z,76.57
2024-01-20T04:37:50.642Z,76.69
2024-01-20T04:40:52.456Z,76.61
2024-01-20T04:43:54.128Z,76.87
2024-01-20T04:46:55.817Z,76.88
2024-01-20T04:49:57.532Z,76.36
2024-01-20T04:52:59.238Z,76.89
2024-01-20T04:56:04.661Z,76.98
2024-01-20T04:59:06.328Z,77.03
2024-01-20T05:02:08.070Z,76.59
2024-01-20T05:05:10.130Z,76.48
2024-01-20T05:08:11.863Z,76.76
2024-01-20T05:11:13.720Z,77.02
2024-01-20T05:14:15.513Z,77.21
2024-01-20T05:17:17.213Z,77.48
2024-01-20T05:20:18.979Z,76.93
2024-01-20T05:23:20.724Z,77.35
2024-01-20T05:26:22.538Z,76.92
2024-01-20T05:29:24.522Z,77.23
2024-01-20T05:32:26.676Z,77.41
2024-01-20T05:35:28.409Z,77.17
2024-01-20T05:38:30.093Z,77.25
2024-01-20T05:41:31.836Z,76.99
2024-01-20T05:44:33.619Z,77.66
2024-01-20T05:47:35.417Z,77.02
2024-01-20T05:50:37.176Z,76.75
2024-01-20T05:53:38.988Z,77.44
2024-01-20T05:56:40.653Z,76.66
2024-01-20T05:59:42.354Z,77.62
2024-01-20T06:02:44.178Z,76.40
2024-01-20T06:05:45.881Z,76.78
2024-01-20T06:08:47.586Z,76.73
2024-01-20T06:11:49.923Z,76.77
2024-01-20T06:14:51.627Z,76.72
2024-01-20T06:17:53.417Z,76.85
2024-01-20T06:20:55.536Z,76.89
2024-01-20T06:23:57.323Z,76.14
2024-01-20T06:26:59.064Z,75.80
2024-01-20T06:30:01.093Z,76.31
2024-01-20T06:33:04.012Z,76.76
2024-01-20T06:36:06.309Z,76.76
2024-01-20T06:39:08.194Z,76.48
2024-01-20T06:42:11.599Z,76.41
2024-01-20T06:45:13.408Z,76.11
2024-01-20T06:48:15.301Z,76.18
2024-01-20T06:51:17.343Z,76.11
2024-01-20T06:54:19.237Z,76.53
2024-01-20T06:57:21.003Z,76.24
2024-01-20T07:00:22.867Z,76.46
2024-01-20T07:03:24.740Z,75.76
2024-01-20T07:06:26.569Z,76.04
2024-01-20T07:09:28.426Z,75.84
2024-01-20T07:12:31.020Z,75.49
2024-01-20T07:15:33.018Z,75.55
2024-01-20T07:18:34.756Z,75.39
2024-01-20T07:21:36.544Z,76.19
2024-01-20T07:24:38.522Z,75.99
2024-01-20T07:27:40.278Z,75.28
2024-01-20T07:30:42.039Z,75.25
2024-01-20T07:33:43.885Z,74.92
2024-01-20T07:36:46.103Z,75.37
2024-01-20T07:39:48.216Z,75.60
2024-01-20T07:42:50.045Z,75.66
2024-01-20T07:45:55.225Z,73.99
2024-01-20T07:48:57.056Z,73.75
2024-01-20T07:51:58.962Z,73.55
2024-01-20T07:55:00.771Z,73.95
2024-01-20T07:58:02.577Z,73.16
2024-01-20T08:01:04.557Z,74.47
2024-01-20T08:04:06.851Z,74.87
2024-01-20T08:07:10.107Z,74.56
2024-01-20T08:10:12.276Z,72.85
2024-01-20T08:13:13.999Z,72.74
2024-01-20T08:16:15.713Z,72.31
2024-01-20T08:19:17.532Z,72.08
2024-01-20T08:22:20.911Z,72.72
2024-01-20T08:25:23.047Z,72.62
2024-01-20T08:28:25.007Z,72.28
2024-01-20T08:31:26.778Z,72.36
2024-01-20T08:34:28.535Z,72.82
2024-01-20T08:37:30.333Z,72.93
2024-01-20T08:40:32.012Z,74.28
2024-01-20T08:43:33.714Z,73.74
2024-01-20T08:46:36.453Z,72.85
2024-01-20T08:49:38.247Z,73.82
2024-01-20T08:52:40.873Z,73.66
2024-01-20T08:55:42.720Z,73.55
2024-01-20T08:58:44.387Z,73.99
2024-01-20T09:01:46.396Z,73.15
2024-01-20T09:04:48.086Z,73.98
2024-01-20T09:07:49.767Z,74.02
2024-01-20T09:10:52.249Z,73.55
2024-01-20T09:13:54.033Z,73.87
2024-01-20T09:16:55.738Z,73.03
2024-01-20T09:19:57.603Z,72.14
2024-01-20T09:22:59.410Z,72.24
2024-01-20T09:26:01.100Z,72.21
2024-01-20T09:29:02.848Z,71.05
2024-01-20T09:32:05.013Z,69.89
2024-01-20T09:35:07.911Z,71.19
2024-01-20T09:38:09.957Z,69.66
2024-01-20T09:41:12.638Z,68.20
2024-01-20T09:44:16.447Z,68.55
2024-01-20T09:47:20.754Z,68.96
2024-01-20T09:50:22.577Z,68.84
2024-01-20T09:53:25.468Z,68.17
2024-01-20T09:56:30.447Z,68.75
2024-01-20T09:59:33.347Z,69.68
2024-01-20T10:02:36.640Z,68.15
2024-01-20T10:05:39.125Z,66.81
2024-01-20T10:08:40.955Z,66.45
2024-01-20T10:11:42.609Z,67.40
2024-01-20T10:14:44.425Z,67.71
2024-01-20T10:17:46.473Z,67.34
2024-01-20T10:20:49.126Z,67.27
2024-01-20T10:23:51.049Z,68.29
2024-01-20T10:26:53.707Z,67.73
2024-01-20T10:29:55.379Z,66.75
2024-01-20T10:33:08.606Z,66.81
2024-01-20T10:36:15.238Z,68.27
2024-01-20T10:39:21.116Z,65.98
2024-01-20T10:42:28.484Z,65.79
2024-01-20T10:45:40.059Z,64.29
2024-01-20T10:48:47.929Z,62.96
2024-01-20T10:51:51.020Z,63.19
2024-01-20T10:54:52.842Z,61.47
2024-01-20T10:57:55.649Z,61.63
2024-01-20T11:00:57.521Z,59.55
2024-01-20T11:03:59.372Z,60.38
2024-01-20T11:07:01.699Z,60.68
2024-01-20T11:10:05.082Z,60.33
2024-01-20T11:13:07.849Z,59.65
2024-01-20T11:16:19.008Z,58.62
2024-01-20T11:19:20.758Z,57.71
2024-01-20T11:22:36.786Z,58.88
2024-01-20T11:25:38.549Z,57.58
2024-01-20T11:28:44.378Z,58.50
2024-01-20T11:31:49.987Z,57.86
2024-01-20T11:34:51.845Z,57.15
2024-01-20T11:37:58.647Z,57.15
2024-01-20T11:41:01.399Z,58.96
2024-01-20T11:44:03.242Z,58.60
2024-01-20T11:47:05.267Z,59.48
2024-01-20T11:50:08.034Z,60.32
2024-01-20T11:53:10.290Z,61.10
2024-01-20T11:56:12.057Z,61.89
2024-01-20T11:59:14.659Z,62.35
2024-01-20T12:02:17.364Z,62.76
2024-01-20T12:05:19.863Z,62.21
2024-01-20T12:08:22.201Z,62.42
2024-01-20T12:11:24.588Z,62.27
2024-01-20T12:14:26.369Z,62.13
2024-01-20T12:17:28.119Z,61.59
2024-01-20T12:20:30.095Z,60.41
2024-01-20T12:23:31.759Z,62.08
2024-01-20T12:26:33.399Z,60.75
2024-01-20T12:29:35.160Z,61.92
2024-01-20T12:32:36.884Z,60.11
2024-01-20T12:35:38.661Z,60.60
2024-01-20T12:38:40.443Z,61.59
2024-01-20T12:41:42.308Z,61.84
2024-01-20T12:44:44.053Z,63.14
2024-01-20T12:47:45.761Z,61.38
2024-01-20T12:50:47.486Z,62.86
2024-01-20T12:53:49.215Z,63.27
2024-01-20T12:56:50.864Z,63.52
2024-01-20T12:59:52.536Z,62.65
2024-01-20T13:02:54.318Z,62.06
2024-01-20T13:05:56.061Z,61.99
2024-01-20T13:08:57.740Z,61.66
2024-01-20T13:11:59.394Z,58.13
2024-01-20T13:15:01.442Z,54.36
2024-01-20T13:18:03.615Z,55.36
2024-01-20T13:21:05.533Z,55.03
2024-01-20T13:24:07.343Z,51.83
2024-01-20T13:27:09.112Z,53.68
2024-01-20T13:30:11.367Z,52.14
2024-01-20T13:33:13.469Z,54.42
2024-01-20T13:36:15.276Z,53.63
2024-01-20T13:39:17.088Z,53.22
2024-01-20T13:42:18.870Z,52.06
2024-01-20T13:45:20.628Z,51.20
2024-01-20T13:48:22.442Z,48.02
2024-01-20T13:51:25.878Z,48.60
2024-01-20T13:54:27.663Z,47.47
2024-01-20T13:57:29.594Z,49.45
2024-01-20T14:00:31.421Z,48.01
2024-01-20T14:03:33.523Z,48.94
2024-01-20T14:06:35.651Z,50.78
2024-01-20T14:09:37.423Z,50.15
2024-01-20T14:12:39.218Z,49.86
2024-01-20T14:15:41.236Z,49.19
2024-01-20T14:18:43.078Z,50.00
2024-01-20T14:21:44.812Z,49.85
2024-01-20T14:24:46.700Z,49.59
2024-01-20T14:27:48.415Z,50.69
2024-01-20T14:30:50.607Z,50.18
2024-01-20T14:33:52.523Z,51.20
2024-01-20T14:36:54.431Z,51.89
2024-01-20T14:39:56.081Z,51.79
2024-01-20T14:42:57.729Z,51.75
2024-01-20T14:45:59.423Z,51.68
2024-01-20T14:49:08.421Z,52.13
2024-01-20T14:52:10.547Z,51.77
2024-01-20T14:55:12.300Z,52.42
2024-01-20T14:58:14.021Z,51.10
2024-01-20T15:01:15.744Z,51.93
2024-01-20T15:04:17.681Z,53.36
2024-01-20T15:07:19.516Z,54.69
2024-01-20T15:10:22.453Z,52.71
2024-01-20T15:13:24.145Z,52.83
2024-01-20T15:16:25.823Z,52.57
2024-01-20T15:19:28.284Z,52.31
2024-01-20T15:22:30.065Z,53.50
2024-01-20T15:25:31.815Z,53.70
2024-01-20T15:28:33.726Z,54.59
2024-01-20T15:31:35.413Z,59.51
2024-01-20T15:34:37.182Z,55.65
2024-01-20T15:37:38.906Z,56.82
2024-01-20T15:40:40.980Z,59.43
2024-01-20T15:43:42.780Z,56.87
2024-01-20T15:46:45.503Z,56.21
2024-01-20T15:49:48.501Z,57.57
2024-01-20T15:52:50.617Z,57.42
2024-01-20T15:55:52.368Z,58.55
2024-01-20T15:58:54.001Z,59.32
2024-01-20T16:01:55.718Z,58.71
2024-01-20T16:04:57.421Z,58.63
2024-01-20T16:07:59.145Z,59.37
2024-01-20T16:11:00.933Z,64.41
2024-01-20T16:14:04.246Z,64.15
2024-01-20T16:17:05.940Z,61.08
2024-01-20T16:20:11.334Z,61.45
2024-01-20T16:23:17.777Z,61.95
2024-01-20T16:26:21.953Z,61.95
2024-01-20T16:29:23.733Z,64.65
2024-01-20T16:32:25.603Z,64.50
2024-01-20T16:35:27.338Z,63.43
2024-01-20T16:38:29.041Z,66.03
2024-01-20T16:41:30.752Z,65.47
2024-01-20T16:44:32.462Z,65.33
2024-01-20T16:47:34.274Z,65.35
2024-01-20T16:50:37.005Z,65.49
2024-01-20T16:53:41.633Z,66.61
2024-01-20T16:56:43.684Z,66.76
2024-01-20T16:59:45.479Z,66.14
2024-01-20T17:02:47.179Z,66.25
2024-01-20T17:05:51.474Z,67.41
2024-01-20T17:08:53.128Z,67.59
2024-01-20T17:11:54.887Z,66.25
2024-01-20T17:14:56.622Z,65.44
2024-01-20T17:17:58.331Z,67.22
2024-01-20T17:21:02.377Z,65.84
2024-01-20T17:24:04.306Z,67.35
2024-01-20T17:27:06.178Z,66.50
2024-01-20T17:30:09.271Z,65.73
2024-01-20T17:33:11.613Z,66.92
2024-01-20T17:36:13.530Z,68.60
2024-01-20T17:39:15.355Z,67.68
2024-01-20T17:42:17.239Z,67.08
2024-01-20T17:45:19.015Z,67.74
2024-01-20T17:48:21.153Z,68.73
2024-01-20T17:51:22.968Z,68.93
2024-01-20T17:54:28.432Z,68.99
2024-01-20T17:57:30.851Z,67.75
2024-01-20T18:00:32.752Z,69.54
2024-01-20T18:03:35.284Z,69.12
2024-01-20T18:06:37.749Z,68.78
2024-01-20T18:09:39.608Z,67.84
2024-01-20T18:12:42.698Z,68.10
2024-01-20T18:15:46.182Z,70.36
2024-01-20T18:18:48.180Z,69.65
2024-01-20T18:21:49.993Z,68.61
2024-01-20T18:24:51.840Z,68.45
2024-01-20T18:27:53.578Z,69.41
2024-01-20T18:30:55.367Z,69.67
2024-01-20T18:33:58.836Z,69.37
2024-01-20T18:37:01.297Z,70.94
2024-01-20T18:40:03.336Z,71.15
2024-01-20T18:43:05.176Z,69.89
2024-01-20T18:46:07.690Z,70.62
2024-01-20T18:49:09.443Z,70.41
2024-01-20T18:52:11.280Z,70.93
2024-01-20T18:55:12.989Z,69.86
2024-01-20T18:58:14.860Z,69.76
2024-01-20T19:01:16.681Z,70.78
2024-01-20T19:04:19.262Z,71.35
2024-01-20T19:07:21.548Z,71.71
2024-01-20T19:10:23.364Z,71.27
2024-01-20T19:13:25.560Z,71.99
2024-01-20T19:16:29.076Z,71.21
2024-01-20T19:19:32.544Z,71.54
2024-01-20T19:22:34.400Z,71.75
2024-01-20T19:25:36.196Z,72.15
2024-01-20T19:28:39.444Z,71.62
2024-01-20T19:31:41.089Z,71.89
2024-01-20T19:34:43.071Z,72.31
2024-01-20T19:37:44.940Z,71.58
2024-01-20T19:40:46.875Z,71.89
2024-01-20T19:43:48.663Z,70.54
2024-01-20T19:46:50.378Z,70.30
2024-01-20T19:49:54.521Z,69.61
2024-01-20T19:52:57.860Z,69.56
2024-01-20T19:55:59.745Z,70.38
2024-01-20T19:59:01.432Z,70.39
2024-01-20T20:02:03.364Z,70.13
2024-01-20T20:05:05.388Z,69.16
2024-01-20T20:08:07.343Z,69.74
2024-01-20T20:11:09.051Z,69.64
2024-01-20T20:14:12.806Z,69.28
2024-01-20T20:17:14.563Z,69.28
2024-01-20T20:20:16.292Z,68.63
2024-01-20T20:23:18.014Z,69.33
2024-01-20T20:26:19.681Z,69.45
2024-01-20T20:29:21.485Z,69.06
2024-01-20T20:32:23.857Z,69.36
2024-01-20T20:35:26.018Z,69.49
2024-01-20T20:38:27.767Z,68.58
2024-01-20T20:41:29.560Z,68.52
2024-01-20T20:44:31.230Z,69.00
2024-01-20T20:47:33.666Z,68.80
2024-01-20T20:50:35.385Z,68.06
2024-01-20T20:53:37.060Z,68.67
2024-01-20T20:56:38.745Z,67.27
2024-01-20T20:59:44.053Z,67.39
2024-01-20T21:02:46.053Z,67.16
2024-01-20T21:05:48.129Z,67.18
2024-01-20T21:08:49.816Z,66.63
2024-01-20T21:11:51.480Z,66.24
2024-01-20T21:14:53.339Z,67.20
2024-01-20T21:17:55.094Z,66.50
2024-01-20T21:20:56.807Z,67.16
2024-01-20T21:23:58.569Z,66.49
2024-01-20T21:27:00.268Z,66.30
2024-01-20T21:30:02.083Z,67.27
2024-01-20T21:33:04.676Z,67.82
2024-01-20T21:36:06.636Z,67.16
2024-01-20T21:39:10.746Z,67.29
2024-01-20T21:42:12.811Z,67.94
2024-01-20T21:45:14.580Z,68.35
2024-01-20T21:48:17.376Z,68.71
2024-01-20T21:51:19.286Z,68.65
2024-01-20T21:54:21.066Z,67.97
2024-01-20T21:57:22.845Z,68.30
2024-01-20T22:00:24.967Z,68.22
2024-01-20T22:03:27.017Z,68.31
2024-01-20T22:06:28.891Z,68.66
2024-01-20T22:09:30.654Z,68.53
2024-01-20T22:12:32.932Z,69.01
2024-01-20T22:15:34.670Z,70.36
2024-01-20T22:18:36.453Z,68.79
2024-01-20T22:21:40.186Z,69.83
2024-01-20T22:24:41.985Z,70.55
2024-01-20T22:27:43.754Z,70.46
2024-01-20T22:30:45.515Z,69.32
2024-01-20T22:33:47.274Z,69.38
2024-01-20T22:36:49.239Z,69.69
2024-01-20T22:39:51.028Z,71.59
2024-01-20T22:42:52.853Z,70.16
2024-01-20T22:45:55.174Z,71.84
2024-01-20T22:48:57.034Z,71.32
2024-01-20T22:51:59.218Z,71.15
2024-01-20T22:55:00.943Z,70.51
2024-01-20T22:58:02.848Z,70.18
2024-01-20T23:01:05.541Z,70.47
2024-01-20T23:04:07.466Z,70.90
2024-01-20T23:07:09.243Z,71.64
2024-01-20T23:10:11.294Z,72.02
2024-01-20T23:13:13.304Z,71.73
2024-01-20T23:16:15.000Z,70.71
2024-01-20T23:19:16.831Z,71.86
2024-01-20T23:22:18.520Z,72.03
2024-01-20T23:25:20.224Z,71.82
2024-01-20T23:28:21.893Z,71.00
2024-01-20T23:31:24.091Z,72.43
2024-01-20T23:34:25.887Z,72.63
2024-01-20T23:37:27.606Z,71.93
2024-01-20T23:40:29.287Z,72.44
2024-01-20T23:43:31.000Z,72.20
2024-01-20T23:46:32.652Z,73.12
2024-01-20T23:49:34.427Z,71.79
2024-01-20T23:52:36.503Z,71.89
2024-01-20T23:55:38.234Z,72.29
2024-01-20T23:58:40.064Z,72.71
